createdAt,value
2023-07-25T00:02:22.210Z,2.51
2023-07-25T00:04:49.190Z,2.42
2023-07-25T00:07:18.733Z,2.57
2023-07-25T00:09:45.723Z,2.55
2023-07-25T00:12:12.684Z,2.68
2023-07-25T00:14:39.647Z,2.50
2023-07-25T00:17:06.808Z,2.66
2023-07-25T00:19:33.861Z,2.59
2023-07-25T00:22:01.015Z,2.53
2023-07-25T00:24:30.737Z,2.59
2023-07-25T00:26:57.780Z,2.50
2023-07-25T00:29:24.810Z,2.54
2023-07-25T00:31:51.782Z,2.50
2023-07-25T00:34:18.792Z,2.43
2023-07-25T00:36:45.788Z,2.76
2023-07-25T00:39:12.756Z,2.85
2023-07-25T00:41:42.387Z,2.70
2023-07-25T00:44:09.448Z,2.43
2023-07-25T00:46:36.441Z,2.59
2023-07-25T00:49:06.160Z,2.49
2023-07-25T00:51:33.831Z,2.59
2023-07-25T00:54:01.668Z,2.49
2023-07-25T00:56:28.765Z,2.46
2023-07-25T00:58:58.473Z,2.63
2023-07-25T01:01:26.596Z,2.59
2023-07-25T01:03:53.672Z,2.54
2023-07-25T01:06:20.640Z,2.55
2023-07-25T01:08:51.896Z,2.75
2023-07-25T01:11:19.836Z,4.26
2023-07-25T01:13:47.571Z,5.91
2023-07-25T01:16:21.063Z,3.36
2023-07-25T01:18:49.527Z,2.56
2023-07-25T01:21:16.794Z,2.65
2023-07-25T01:23:45.193Z,2.93
2023-07-25T01:26:17.087Z,2.62
2023-07-25T01:28:44.078Z,2.57
2023-07-25T01:31:11.113Z,2.54
2023-07-25T01:33:40.374Z,2.55
2023-07-25T01:36:07.411Z,2.62
2023-07-25T01:38:34.436Z,2.77
2023-07-25T01:41:01.449Z,2.63
2023-07-25T01:43:31.108Z,2.86
2023-07-25T01:45:59.256Z,3.19
2023-07-25T01:48:26.270Z,3.01
2023-07-25T01:50:53.240Z,3.27
2023-07-25T01:53:20.247Z,3.03
2023-07-25T01:55:47.264Z,3.39
2023-07-25T01:58:14.244Z,3.40
2023-07-25T02:00:43.801Z,3.17
2023-07-25T02:03:10.885Z,3.15
2023-07-25T02:05:37.907Z,3.38
2023-07-25T02:08:05.725Z,3.08
2023-07-25T02:10:32.670Z,3.25
2023-07-25T02:12:59.632Z,3.10
2023-07-25T02:15:26.647Z,3.04
2023-07-25T02:17:56.456Z,2.84
2023-07-25T02:20:23.433Z,2.79
2023-07-25T02:22:50.413Z,3.08
2023-07-25T02:25:17.381Z,3.19
2023-07-25T02:27:44.405Z,3.41
2023-07-25T02:30:12.682Z,4.33
2023-07-25T02:32:39.781Z,4.25
2023-07-25T02:35:09.555Z,3.29
2023-07-25T02:37:36.548Z,2.96
2023-07-25T02:40:04.074Z,2.94
2023-07-25T02:42:31.096Z,2.95
2023-07-25T02:45:07.177Z,2.96
2023-07-25T02:47:34.200Z,3.00
2023-07-25T02:50:01.197Z,2.88
2023-07-25T02:52:30.763Z,3.01
2023-07-25T02:54:57.802Z,2.87
2023-07-25T02:57:24.900Z,3.23
2023-07-25T02:59:52.158Z,2.98
2023-07-25T03:02:19.233Z,3.00
2023-07-25T03:04:46.428Z,3.09
2023-07-25T03:07:13.414Z,3.05
2023-07-25T03:09:43.039Z,2.86
2023-07-25T03:12:10.005Z,2.70
2023-07-25T03:14:36.987Z,2.85
2023-07-25T03:17:04.500Z,2.98
2023-07-25T03:19:31.495Z,3.32
2023-07-25T03:21:58.507Z,3.08
2023-07-25T03:24:25.587Z,2.99
2023-07-25T03:26:55.270Z,2.80
2023-07-25T03:29:22.305Z,3.26
2023-07-25T03:31:49.289Z,2.93
2023-07-25T03:34:16.327Z,3.14
2023-07-25T03:36:43.281Z,2.96
2023-07-25T03:39:10.253Z,2.90
2023-07-25T03:41:37.270Z,2.99
2023-07-25T03:44:06.955Z,2.95
2023-07-25T03:46:34.022Z,2.87
2023-07-25T03:49:01.273Z,3.20
2023-07-25T03:51:28.351Z,3.18
2023-07-25T03:53:55.514Z,3.33
2023-07-25T03:56:22.598Z,3.59
2023-07-25T03:58:49.566Z,4.09
2023-07-25T04:01:19.217Z,3.88
2023-07-25T04:03:46.526Z,3.97
2023-07-25T04:06:13.638Z,4.69
2023-07-25T04:08:40.621Z,5.88
2023-07-25T04:11:07.667Z,3.38
2023-07-25T04:13:34.720Z,3.47
2023-07-25T04:16:01.777Z,3.44
2023-07-25T04:18:31.382Z,3.38
2023-07-25T04:20:58.491Z,3.30
2023-07-25T04:23:25.445Z,3.26
2023-07-25T04:25:52.431Z,3.45
2023-07-25T04:28:19.452Z,3.21
2023-07-25T04:30:46.501Z,3.02
2023-07-25T04:33:13.458Z,2.94
2023-07-25T04:35:43.063Z,2.79
2023-07-25T04:38:10.041Z,2.91
2023-07-25T04:40:37.124Z,2.64
2023-07-25T04:43:04.090Z,2.86
2023-07-25T04:45:31.080Z,2.95
2023-07-25T04:47:58.023Z,3.01
2023-07-25T04:50:25.062Z,3.09
2023-07-25T04:52:54.635Z,3.23
2023-07-25T04:55:21.651Z,3.24
2023-07-25T04:57:50.286Z,3.23
2023-07-25T05:00:17.622Z,3.57
2023-07-25T05:02:44.730Z,2.98
2023-07-25T05:05:11.832Z,2.71
2023-07-25T05:07:38.869Z,2.86
2023-07-25T05:10:09.734Z,3.05
2023-07-25T05:12:36.802Z,2.72
2023-07-25T05:15:05.022Z,2.89
2023-07-25T05:17:32.154Z,2.90
2023-07-25T05:19:59.251Z,3.06
2023-07-25T05:22:26.372Z,3.06
2023-07-25T05:24:53.386Z,2.81
2023-07-25T05:27:23.019Z,2.61
2023-07-25T05:29:50.294Z,2.94
2023-07-25T05:32:17.288Z,3.17
2023-07-25T05:34:44.272Z,3.42
2023-07-25T05:37:11.212Z,3.17
2023-07-25T05:39:38.383Z,3.32
2023-07-25T05:42:05.698Z,3.00
2023-07-25T05:44:35.382Z,3.05
2023-07-25T05:47:02.465Z,2.70
2023-07-25T05:49:29.564Z,2.83
2023-07-25T05:51:56.507Z,2.60
2023-07-25T05:54:23.476Z,2.59
2023-07-25T05:56:50.477Z,2.96
2023-07-25T05:59:17.460Z,2.94
2023-07-25T06:01:47.803Z,2.53
2023-07-25T06:04:14.878Z,2.97
2023-07-25T06:06:41.871Z,2.70
2023-07-25T06:09:08.894Z,2.63
2023-07-25T06:11:36.173Z,2.57
2023-07-25T06:14:09.832Z,2.72
2023-07-25T06:16:37.012Z,2.93
2023-07-25T06:19:06.751Z,2.81
2023-07-25T06:21:34.119Z,2.77
2023-07-25T06:24:01.685Z,2.76
2023-07-25T06:26:28.811Z,2.77
2023-07-25T06:28:55.829Z,3.52
2023-07-25T06:31:22.903Z,3.13
2023-07-25T06:33:49.954Z,2.58
2023-07-25T06:36:19.538Z,2.54
2023-07-25T06:38:46.573Z,3.17
2023-07-25T06:41:13.580Z,2.61
2023-07-25T06:43:40.641Z,2.45
2023-07-25T06:46:07.722Z,2.83
2023-07-25T06:48:34.794Z,3.14
2023-07-25T06:51:01.895Z,3.23
2023-07-25T06:53:31.488Z,2.67
2023-07-25T06:55:58.452Z,2.45
2023-07-25T06:58:25.517Z,2.52
2023-07-25T07:00:52.536Z,3.09
2023-07-25T07:03:19.713Z,2.46
2023-07-25T07:05:53.164Z,2.82
2023-07-25T07:08:20.294Z,2.11
2023-07-25T07:10:52.805Z,2.32
2023-07-25T07:13:20.129Z,1.93
2023-07-25T07:15:47.790Z,1.87
2023-07-25T07:18:15.192Z,1.93
2023-07-25T07:20:46.417Z,1.92
2023-07-25T07:23:13.492Z,1.92
2023-07-25T07:25:40.635Z,1.99
2023-07-25T07:28:10.328Z,2.13
2023-07-25T07:30:37.414Z,3.29
2023-07-25T07:33:04.728Z,3.09
2023-07-25T07:35:32.150Z,2.87
2023-07-25T07:37:59.330Z,3.53
2023-07-25T07:40:26.583Z,2.28
2023-07-25T07:42:53.767Z,1.83
2023-07-25T07:45:23.518Z,1.97
2023-07-25T07:47:50.733Z,2.16
2023-07-25T07:50:18.253Z,2.04
2023-07-25T07:52:45.293Z,1.75
2023-07-25T07:55:13.358Z,1.90
2023-07-25T07:57:41.108Z,2.43
2023-07-25T08:00:09.174Z,2.14
2023-07-25T08:02:39.144Z,2.10
2023-07-25T08:05:07.206Z,2.11
2023-07-25T08:07:34.396Z,2.07
2023-07-25T08:10:01.724Z,2.06
2023-07-25T08:12:28.772Z,2.12
2023-07-25T08:14:55.891Z,2.02
2023-07-25T08:17:23.032Z,2.03
2023-07-25T08:19:52.664Z,2.83
2023-07-25T08:22:19.822Z,2.90
2023-07-25T08:24:46.888Z,2.60
2023-07-25T08:27:13.950Z,2.48
2023-07-25T08:29:41.590Z,2.53
2023-07-25T08:32:09.594Z,2.29
2023-07-25T08:34:37.385Z,2.34
2023-07-25T08:37:07.926Z,2.50
2023-07-25T08:39:35.128Z,2.53
2023-07-25T08:42:06.758Z,2.08
2023-07-25T08:44:51.609Z,2.41
2023-07-25T08:47:23.702Z,2.69
2023-07-25T08:49:54.211Z,2.74
2023-07-25T08:52:28.504Z,2.75
2023-07-25T08:54:56.641Z,2.39
2023-07-25T08:57:26.049Z,2.34
2023-07-25T08:59:55.007Z,2.42
2023-07-25T09:02:23.608Z,2.60
2023-07-25T09:04:51.517Z,2.48
2023-07-25T09:07:18.538Z,2.40
2023-07-25T09:09:48.429Z,2.49
2023-07-25T09:12:15.640Z,2.44
2023-07-25T09:14:47.673Z,2.38
2023-07-25T09:17:14.807Z,2.43
2023-07-25T09:19:42.186Z,2.26
2023-07-25T09:22:26.945Z,2.24
2023-07-25T09:24:56.866Z,2.28
2023-07-25T09:27:24.100Z,2.29
2023-07-25T09:29:52.147Z,2.64
2023-07-25T09:32:26.884Z,2.81
2023-07-25T09:34:56.082Z,3.08
2023-07-25T09:37:23.109Z,2.80
2023-07-25T09:39:52.432Z,3.06
2023-07-25T09:42:24.612Z,3.22
2023-07-25T09:44:53.647Z,3.65
2023-07-25T09:47:25.162Z,2.75
2023-07-25T09:49:54.606Z,3.02
2023-07-25T09:52:24.202Z,2.71
2023-07-25T09:54:51.909Z,2.84
2023-07-25T09:57:20.110Z,2.65
2023-07-25T09:59:50.094Z,2.55
2023-07-25T10:02:17.990Z,2.74
2023-07-25T10:04:47.425Z,2.62
2023-07-25T10:07:15.738Z,2.38
2023-07-25T10:09:46.392Z,2.67
2023-07-25T10:12:13.808Z,2.46
2023-07-25T10:14:41.631Z,2.28
2023-07-25T10:17:11.849Z,2.09
2023-07-25T10:19:50.353Z,2.15
2023-07-25T10:22:18.170Z,2.45
2023-07-25T10:24:45.538Z,2.74
2023-07-25T10:27:13.867Z,2.52
2023-07-25T10:29:42.628Z,2.22
2023-07-25T10:32:14.732Z,2.09
2023-07-25T10:34:47.090Z,2.14
2023-07-25T10:37:21.522Z,2.02
2023-07-25T10:40:02.282Z,2.20
2023-07-25T10:42:51.729Z,2.10
2023-07-25T10:45:53.214Z,2.01
2023-07-25T10:48:43.700Z,2.36
2023-07-25T10:51:10.750Z,2.44
2023-07-25T10:53:37.895Z,2.15
2023-07-25T10:56:16.036Z,2.14
2023-07-25T10:59:05.337Z,2.62
2023-07-25T11:01:37.259Z,1.86
2023-07-25T11:04:25.698Z,1.60
2023-07-25T11:06:54.405Z,1.67
2023-07-25T11:09:22.134Z,1.69
2023-07-25T11:11:51.167Z,1.66
2023-07-25T11:14:20.462Z,2.67
2023-07-25T11:16:49.420Z,2.96
2023-07-25T11:19:16.753Z,2.49
2023-07-25T11:21:47.253Z,2.31
2023-07-25T11:24:14.460Z,2.42
2023-07-25T11:26:41.990Z,1.88
2023-07-25T11:29:10.657Z,1.53
2023-07-25T11:31:37.679Z,1.68
2023-07-25T11:34:11.747Z,1.56
2023-07-25T11:36:40.242Z,1.35
2023-07-25T11:39:11.620Z,1.23
2023-07-25T11:41:40.000Z,1.14
2023-07-25T11:44:10.857Z,0.96
2023-07-25T11:46:40.972Z,1.30
2023-07-25T11:49:10.109Z,1.13
2023-07-25T11:51:38.680Z,1.15
2023-07-25T11:54:09.257Z,1.00
2023-07-25T11:56:37.880Z,1.21
2023-07-25T11:59:05.184Z,1.17
2023-07-25T12:01:34.789Z,1.00
2023-07-25T12:04:02.168Z,1.09
2023-07-25T12:06:31.189Z,1.17
2023-07-25T12:08:59.872Z,1.18
2023-07-25T12:11:29.913Z,1.03
2023-07-25T12:13:58.878Z,1.36
2023-07-25T12:16:28.389Z,3.04
2023-07-25T12:18:57.108Z,5.79
2023-07-25T12:21:26.322Z,1.82
2023-07-25T12:23:55.007Z,1.22
2023-07-25T12:26:22.779Z,1.26
2023-07-25T12:28:53.453Z,1.34
2023-07-25T12:31:21.213Z,1.35
2023-07-25T12:33:50.815Z,1.28
2023-07-25T12:36:19.756Z,1.30
2023-07-25T12:38:47.996Z,1.33
2023-07-25T12:41:15.301Z,1.63
2023-07-25T12:43:42.357Z,1.63
2023-07-25T12:46:12.212Z,1.36
2023-07-25T12:48:39.326Z,1.19
2023-07-25T12:51:06.440Z,1.28
2023-07-25T12:53:33.504Z,1.27
2023-07-25T12:56:00.992Z,1.28
2023-07-25T12:58:30.914Z,1.33
2023-07-25T13:00:58.053Z,1.30
2023-07-25T13:03:28.846Z,5.75
2023-07-25T13:05:58.976Z,5.76
2023-07-25T13:08:26.084Z,1.65
2023-07-25T13:10:53.188Z,1.61
2023-07-25T13:13:20.225Z,1.44
2023-07-25T13:15:47.259Z,1.35
2023-07-25T13:18:14.475Z,1.49
2023-07-25T13:20:44.293Z,1.38
2023-07-25T13:23:11.313Z,1.48
2023-07-25T13:25:39.663Z,1.50
2023-07-25T13:28:09.387Z,1.45
2023-07-25T13:30:36.655Z,1.50
2023-07-25T13:33:04.074Z,1.36
2023-07-25T13:35:31.197Z,1.48
2023-07-25T13:38:00.851Z,1.49
2023-07-25T13:40:29.214Z,1.62
2023-07-25T13:42:56.380Z,1.67
2023-07-25T13:45:28.699Z,1.66
2023-07-25T13:48:01.615Z,1.60
2023-07-25T13:50:42.228Z,1.62
2023-07-25T13:53:13.225Z,1.46
2023-07-25T13:55:40.273Z,1.60
2023-07-25T13:58:22.909Z,1.47
2023-07-25T14:00:50.369Z,1.83
2023-07-25T14:03:17.484Z,1.78
2023-07-25T14:05:44.557Z,1.67
2023-07-25T14:08:15.706Z,1.59
2023-07-25T14:10:42.742Z,1.71
2023-07-25T14:13:09.930Z,1.75
2023-07-25T14:15:37.319Z,1.95
2023-07-25T14:18:04.500Z,1.89
2023-07-25T14:20:31.938Z,1.70
2023-07-25T14:22:59.014Z,1.86
2023-07-25T14:25:28.719Z,1.62
2023-07-25T14:27:55.713Z,1.99
2023-07-25T14:30:22.735Z,2.27
2023-07-25T14:32:49.801Z,2.74
2023-07-25T14:35:18.045Z,2.82
2023-07-25T14:37:56.162Z,2.64
2023-07-25T14:40:25.299Z,2.83
2023-07-25T14:42:55.019Z,2.98
2023-07-25T14:45:22.117Z,2.61
2023-07-25T14:47:49.397Z,2.53
2023-07-25T14:50:16.888Z,2.34
2023-07-25T14:52:43.977Z,2.19
2023-07-25T14:55:10.993Z,2.85
2023-07-25T14:57:38.386Z,2.85
2023-07-25T15:00:09.766Z,2.19
2023-07-25T15:02:37.330Z,2.24
2023-07-25T15:05:04.979Z,1.94
2023-07-25T15:07:32.211Z,1.74
2023-07-25T15:09:59.393Z,1.73
2023-07-25T15:12:27.201Z,2.57
2023-07-25T15:14:54.260Z,2.90
2023-07-25T15:17:25.932Z,2.93
2023-07-25T15:19:58.069Z,3.23
2023-07-25T15:22:25.315Z,3.34
2023-07-25T15:24:52.574Z,3.34
2023-07-25T15:27:19.557Z,3.16
2023-07-25T15:29:46.658Z,3.33
2023-07-25T15:32:13.742Z,3.30
2023-07-25T15:34:44.874Z,3.26
2023-07-25T15:37:12.190Z,3.39
2023-07-25T15:39:39.386Z,3.18
2023-07-25T15:42:06.888Z,3.63
2023-07-25T15:44:33.926Z,3.27
2023-07-25T15:47:02.091Z,3.21
2023-07-25T15:49:29.120Z,3.59
2023-07-25T15:51:58.924Z,3.40
2023-07-25T15:54:27.201Z,3.17
2023-07-25T15:56:56.561Z,3.01
2023-07-25T15:59:23.798Z,3.20
2023-07-25T16:01:53.484Z,2.79
2023-07-25T16:04:21.525Z,2.62
2023-07-25T16:06:48.729Z,2.58
2023-07-25T16:09:18.299Z,2.72
2023-07-25T16:11:45.404Z,2.40
2023-07-25T16:14:12.605Z,1.76
2023-07-25T16:16:42.300Z,1.78
2023-07-25T16:19:09.375Z,1.72
2023-07-25T16:21:36.558Z,1.97
2023-07-25T16:24:03.917Z,2.36
2023-07-25T16:26:33.540Z,1.95
2023-07-25T16:29:00.582Z,2.50
2023-07-25T16:33:57.809Z,1.66
2023-07-25T16:36:24.939Z,2.07
2023-07-25T16:38:53.591Z,1.28
2023-07-25T16:41:20.590Z,1.24
2023-07-25T16:43:54.816Z,1.18
2023-07-25T16:46:21.947Z,1.17
2023-07-25T16:48:48.971Z,1.25
2023-07-25T16:51:16.020Z,1.23
2023-07-25T16:53:43.108Z,1.14
2023-07-25T16:56:12.758Z,1.49
2023-07-25T16:58:39.823Z,1.39
2023-07-25T17:01:09.490Z,1.01
2023-07-25T17:03:36.722Z,1.20
2023-07-25T17:06:05.261Z,0.96
2023-07-25T17:08:32.639Z,0.92
2023-07-25T17:10:59.809Z,0.94
2023-07-25T17:13:26.814Z,0.87
2023-07-25T17:15:54.056Z,0.90
2023-07-25T17:18:23.737Z,0.97
2023-07-25T17:20:50.880Z,0.87
2023-07-25T17:23:18.136Z,1.07
2023-07-25T17:25:45.190Z,1.37
2023-07-25T17:28:12.325Z,1.18
2023-07-25T17:30:39.379Z,1.14
2023-07-25T17:33:06.384Z,1.14
2023-07-25T17:35:38.259Z,1.14
2023-07-25T17:38:05.817Z,1.25
2023-07-25T17:40:33.191Z,1.17
2023-07-25T17:43:00.228Z,1.11
2023-07-25T17:45:27.288Z,1.17
2023-07-25T17:47:54.382Z,1.03
2023-07-25T17:50:21.504Z,1.46
2023-07-25T17:52:51.135Z,1.29
2023-07-25T17:55:18.204Z,1.18
2023-07-25T17:57:45.206Z,1.36
2023-07-25T18:00:13.491Z,1.43
2023-07-25T18:02:40.688Z,1.36
2023-07-25T18:05:08.069Z,1.49
2023-07-25T18:07:35.183Z,1.42
2023-07-25T18:10:05.618Z,1.32
2023-07-25T18:12:32.648Z,1.28
2023-07-25T18:14:59.717Z,1.47
2023-07-25T18:17:26.883Z,1.23
2023-07-25T18:19:54.137Z,1.36
2023-07-25T18:22:21.233Z,1.41
2023-07-25T18:24:48.355Z,1.32
2023-07-25T18:27:18.264Z,2.26
2023-07-25T18:29:45.356Z,1.89
2023-07-25T18:32:12.487Z,1.55
2023-07-25T18:34:39.912Z,1.58
2023-07-25T18:37:07.092Z,1.50
2023-07-25T18:39:34.110Z,1.79
2023-07-25T18:42:01.139Z,1.89
2023-07-25T18:44:30.816Z,1.81
2023-07-25T18:46:57.965Z,1.57
2023-07-25T18:49:25.111Z,1.54
2023-07-25T18:51:52.182Z,1.32
2023-07-25T18:54:19.225Z,1.39
2023-07-25T18:56:46.288Z,1.53
2023-07-25T18:59:13.514Z,1.49
2023-07-25T19:01:43.243Z,1.57
2023-07-25T19:04:10.497Z,1.57
2023-07-25T19:06:37.753Z,1.61
2023-07-25T19:09:05.410Z,2.04
2023-07-25T19:11:32.566Z,1.82
2023-07-25T19:13:59.625Z,1.84
2023-07-25T19:16:26.680Z,1.89
2023-07-25T19:18:56.341Z,1.87
2023-07-25T19:21:23.336Z,1.69
2023-07-25T19:23:50.427Z,1.96
2023-07-25T19:26:17.413Z,4.36
2023-07-25T19:28:44.455Z,3.03
2023-07-25T19:31:11.585Z,2.12
2023-07-25T19:33:38.771Z,2.10
2023-07-25T19:36:08.432Z,2.61
2023-07-25T19:38:35.556Z,2.31
2023-07-25T19:41:02.741Z,1.86
2023-07-25T19:43:31.397Z,1.89
2023-07-25T19:46:03.837Z,1.78
2023-07-25T19:48:31.097Z,1.81
2023-07-25T19:50:58.175Z,1.93
2023-07-25T19:53:27.784Z,2.27
2023-07-25T19:55:55.487Z,2.39
2023-07-25T19:58:22.635Z,2.30
2023-07-25T20:00:49.825Z,2.06
2023-07-25T20:03:17.052Z,2.24
2023-07-25T20:05:44.228Z,2.73
2023-07-25T20:08:11.267Z,2.66
2023-07-25T20:10:41.523Z,2.83
2023-07-25T20:13:08.797Z,3.00
2023-07-25T20:15:35.945Z,2.97
2023-07-25T20:18:03.188Z,3.19
2023-07-25T20:20:30.370Z,3.49
2023-07-25T20:22:57.460Z,3.66
2023-07-25T20:25:24.537Z,3.54
2023-07-25T20:27:54.225Z,3.52
2023-07-25T20:30:21.241Z,3.67
2023-07-25T20:32:48.489Z,3.84
2023-07-25T20:35:15.636Z,3.73
2023-07-25T20:37:42.624Z,4.24
2023-07-25T20:40:10.822Z,4.60
2023-07-25T20:42:37.866Z,4.06
2023-07-25T20:45:08.414Z,4.28
2023-07-25T20:47:35.435Z,4.28
2023-07-25T20:50:02.436Z,4.35
2023-07-25T20:52:29.447Z,4.81
2023-07-25T20:54:56.531Z,5.15
2023-07-25T20:57:23.504Z,5.39
2023-07-25T20:59:50.591Z,4.97
2023-07-25T21:02:21.579Z,5.24
2023-07-25T21:04:48.671Z,5.34
2023-07-25T21:07:15.721Z,5.78
2023-07-25T21:09:42.721Z,5.80
2023-07-25T21:12:11.156Z,5.76
2023-07-25T21:14:39.514Z,6.33
2023-07-25T21:17:06.606Z,5.82
2023-07-25T21:19:36.208Z,6.00
2023-07-25T21:22:03.323Z,6.95
2023-07-25T21:24:30.466Z,7.15
2023-07-25T21:26:57.529Z,6.66
2023-07-25T21:29:24.685Z,7.35
2023-07-25T21:31:51.745Z,7.33
2023-07-25T21:34:18.805Z,7.42
2023-07-25T21:36:48.380Z,7.34
2023-07-25T21:39:15.432Z,7.80
2023-07-25T21:41:42.503Z,8.27
2023-07-25T21:44:09.772Z,8.61
2023-07-25T21:46:38.365Z,8.08
2023-07-25T21:49:07.516Z,8.53
2023-07-25T21:51:34.617Z,8.40
2023-07-25T21:54:04.192Z,8.57
2023-07-25T21:56:31.416Z,8.96
2023-07-25T21:58:59.186Z,9.35
2023-07-25T22:01:26.272Z,8.97
2023-07-25T22:03:53.387Z,9.13
2023-07-25T22:06:20.481Z,9.52
2023-07-25T22:08:47.545Z,9.57
2023-07-25T22:11:17.241Z,9.55
2023-07-25T22:13:44.340Z,10.35
2023-07-25T22:16:11.386Z,10.72
2023-07-25T22:18:38.489Z,11.13
2023-07-25T22:21:05.593Z,10.48
2023-07-25T22:23:32.649Z,10.46
2023-07-25T22:26:00.285Z,10.95
2023-07-25T22:28:30.173Z,10.98
2023-07-25T22:31:00.854Z,11.35
2023-07-25T22:33:27.993Z,11.17
2023-07-25T22:35:55.151Z,11.33
2023-07-25T22:38:22.171Z,12.02
2023-07-25T22:40:49.157Z,11.85
2023-07-25T22:43:16.296Z,12.38
2023-07-25T22:45:45.956Z,12.90
2023-07-25T22:48:13.077Z,12.39
2023-07-25T22:50:40.029Z,13.31
2023-07-25T22:53:07.068Z,13.15
2023-07-25T22:55:34.081Z,12.72
2023-07-25T22:58:01.056Z,13.83
2023-07-25T23:00:28.030Z,14.31
2023-07-25T23:02:57.721Z,14.56
2023-07-25T23:05:24.808Z,14.16
2023-07-25T23:07:51.814Z,14.59
2023-07-25T23:10:18.906Z,14.22
2023-07-25T23:12:46.005Z,14.11
2023-07-25T23:15:13.274Z,13.44
2023-07-25T23:17:40.537Z,12.25
2023-07-25T23:20:11.162Z,12.38
2023-07-25T23:22:38.206Z,11.10
2023-07-25T23:25:06.256Z,11.80
2023-07-25T23:27:33.280Z,10.82
2023-07-25T23:30:00.251Z,9.49
2023-07-25T23:32:27.288Z,8.61
2023-07-25T23:34:54.346Z,8.03
2023-07-25T23:37:23.937Z,7.48
2023-07-25T23:39:51.190Z,7.19
2023-07-25T23:42:18.242Z,6.98
2023-07-25T23:44:45.313Z,7.21
2023-07-25T23:47:12.426Z,7.77
2023-07-25T23:49:39.602Z,8.13
2023-07-25T23:52:07.468Z,8.05
2023-07-25T23:54:37.082Z,8.81
2023-07-25T23:57:04.841Z,9.60
2023-07-25T23:59:31.885Z,11.62
